sensor_id;sensor_type;location;lat;lon;timestamp;temperature;humidity
52555;DHT22;38455;52.710;6.502;2022-10-28T00:02:15;14.50;99.90
52555;DHT22;38455;52.710;6.502;2022-10-28T00:04:41;14.40;99.90
52555;DHT22;38455;52.710;6.502;2022-10-28T00:07:06;14.40;99.90
52555;DHT22;38455;52.710;6.502;2022-10-28T00:09:32;14.40;99.90
52555;DHT22;38455;52.710;6.502;2022-10-28T00:11:57;14.40;99.90
52555;DHT22;38455;52.710;6.502;2022-10-28T00:14:23;14.40;99.90
52555;DHT22;38455;52.710;6.502;2022-10-28T00:16:49;14.40;99.90
52555;DHT22;38455;52.710;6.502;2022-10-28T00:19:15;14.50;99.90
52555;DHT22;38455;52.710;6.502;2022-10-28T00:21:42;14.60;99.90
52555;DHT22;38455;52.710;6.502;2022-10-28T00:24:09;14.80;99.90
52555;DHT22;38455;52.710;6.502;2022-10-28T00:26:37;14.80;99.90
52555;DHT22;38455;52.710;6.502;2022-10-28T00:29:12;14.90;99.90
52555;DHT22;38455;52.710;6.502;2022-10-28T00:31:38;15.00;99.90
52555;DHT22;38455;52.710;6.502;2022-10-28T00:34:06;15.00;99.90
52555;DHT22;38455;52.710;6.502;2022-10-28T00:36:36;15.00;99.90
52555;DHT22;38455;52.710;6.502;2022-10-28T00:39:06;15.00;99.90
52555;DHT22;38455;52.710;6.502;2022-10-28T00:41:34;15.10;99.90
52555;DHT22;38455;52.710;6.502;2022-10-28T00:44:39;15.10;99.90
52555;DHT22;38455;52.710;6.502;2022-10-28T00:47:32;15.10;99.90
52555;DHT22;38455;52.710;6.502;2022-10-28T00:53:04;15.20;99.90
52555;DHT22;38455;52.710;6.502;2022-10-28T00:55:32;15.20;99.90
52555;DHT22;38455;52.710;6.502;2022-10-28T00:58:00;15.10;99.90
52555;DHT22;38455;52.710;6.502;2022-10-28T01:00:27;15.20;99.90
52555;DHT22;38455;52.710;6.502;2022-10-28T01:02:52;15.10;99.90
52555;DHT22;38455;52.710;6.502;2022-10-28T01:05:22;15.10;99.90
52555;DHT22;38455;52.710;6.502;2022-10-28T01:07:55;15.10;99.90
52555;DHT22;38455;52.710;6.502;2022-10-28T01:10:27;15.10;99.90
52555;DHT22;38455;52.710;6.502;2022-10-28T01:15:26;14.90;99.90
52555;DHT22;38455;52.710;6.502;2022-10-28T01:18:52;14.90;99.90
52555;DHT22;38455;52.710;6.502;2022-10-28T01:29:58;14.80;99.90
52555;DHT22;38455;52.710;6.502;2022-10-28T01:32:46;14.80;99.90
52555;DHT22;38455;52.710;6.502;2022-10-28T01:35:29;14.80;99.90
52555;DHT22;38455;52.710;6.502;2022-10-28T01:41:00;14.80;99.90
52555;DHT22;38455;52.710;6.502;2022-10-28T01:43:32;14.80;99.90
52555;DHT22;38455;52.710;6.502;2022-10-28T01:48:44;14.80;99.90
52555;DHT22;38455;52.710;6.502;2022-10-28T01:51:27;14.70;99.90
52555;DHT22;38455;52.710;6.502;2022-10-28T01:53:57;14.70;99.90
52555;DHT22;38455;52.710;6.502;2022-10-28T01:56:27;14.60;99.90
52555;DHT22;38455;52.710;6.502;2022-10-28T01:58:55;14.60;99.90
52555;DHT22;38455;52.710;6.502;2022-10-28T02:01:23;14.60;99.90
52555;DHT22;38455;52.710;6.502;2022-10-28T02:03:50;14.60;99.90
52555;DHT22;38455;52.710;6.502;2022-10-28T02:06:19;14.60;99.90
52555;DHT22;38455;52.710;6.502;2022-10-28T02:14:55;14.50;99.90
52555;DHT22;38455;52.710;6.502;2022-10-28T02:20:40;14.50;99.90
52555;DHT22;38455;52.710;6.502;2022-10-28T02:26:01;14.60;99.90
52555;DHT22;38455;52.710;6.502;2022-10-28T02:28:47;14.50;99.90
52555;DHT22;38455;52.710;6.502;2022-10-28T02:31:28;14.40;99.90
52555;DHT22;38455;52.710;6.502;2022-10-28T02:34:02;14.50;99.90
52555;DHT22;38455;52.710;6.502;2022-10-28T02:36:33;14.40;99.90
52555;DHT22;38455;52.710;6.502;2022-10-28T02:39:01;14.40;99.90
52555;DHT22;38455;52.710;6.502;2022-10-28T02:41:47;14.40;99.90
52555;DHT22;38455;52.710;6.502;2022-10-28T02:44:16;14.40;99.90
52555;DHT22;38455;52.710;6.502;2022-10-28T02:46:45;14.30;99.90
52555;DHT22;38455;52.710;6.502;2022-10-28T02:49:13;14.30;99.90
52555;DHT22;38455;52.710;6.502;2022-10-28T02:51:45;14.20;99.90
52555;DHT22;38455;52.710;6.502;2022-10-28T02:54:14;14.30;99.90
52555;DHT22;38455;52.710;6.502;2022-10-28T02:57:03;14.30;99.90
52555;DHT22;38455;52.710;6.502;2022-10-28T02:59:30;14.30;99.90
52555;DHT22;38455;52.710;6.502;2022-10-28T03:01:55;14.30;99.90
52555;DHT22;38455;52.710;6.502;2022-10-28T03:04:21;14.20;99.90
52555;DHT22;38455;52.710;6.502;2022-10-28T03:06:47;14.30;99.90
52555;DHT22;38455;52.710;6.502;2022-10-28T03:09:12;14.20;99.90
52555;DHT22;38455;52.710;6.502;2022-10-28T03:11:38;14.10;99.90
52555;DHT22;38455;52.710;6.502;2022-10-28T03:14:04;14.20;99.90
52555;DHT22;38455;52.710;6.502;2022-10-28T03:16:29;14.20;99.90
52555;DHT22;38455;52.710;6.502;2022-10-28T03:18:55;14.10;99.90
52555;DHT22;38455;52.710;6.502;2022-10-28T03:21:20;14.00;99.90
52555;DHT22;38455;52.710;6.502;2022-10-28T03:23:46;14.20;99.90
52555;DHT22;38455;52.710;6.502;2022-10-28T03:26:12;14.10;99.90
52555;DHT22;38455;52.710;6.502;2022-10-28T03:28:37;14.20;99.90
52555;DHT22;38455;52.710;6.502;2022-10-28T03:31:03;14.20;99.90
52555;DHT22;38455;52.710;6.502;2022-10-28T03:33:29;14.20;99.90
52555;DHT22;38455;52.710;6.502;2022-10-28T03:35:54;14.20;99.90
52555;DHT22;38455;52.710;6.502;2022-10-28T03:38:20;14.10;99.90
52555;DHT22;38455;52.710;6.502;2022-10-28T03:40:49;14.10;99.90
52555;DHT22;38455;52.710;6.502;2022-10-28T03:43:16;14.10;99.90
52555;DHT22;38455;52.710;6.502;2022-10-28T03:45:41;14.10;99.90
52555;DHT22;38455;52.710;6.502;2022-10-28T03:48:07;14.10;99.90
52555;DHT22;38455;52.710;6.502;2022-10-28T03:50:32;14.10;99.90
52555;DHT22;38455;52.710;6.502;2022-10-28T03:52:58;14.00;99.90
52555;DHT22;38455;52.710;6.502;2022-10-28T03:55:24;14.00;99.90
52555;DHT22;38455;52.710;6.502;2022-10-28T03:57:50;14.00;99.90
52555;DHT22;38455;52.710;6.502;2022-10-28T04:00:16;14.10;99.90
52555;DHT22;38455;52.710;6.502;2022-10-28T04:02:47;14.00;99.90
52555;DHT22;38455;52.710;6.502;2022-10-28T04:05:13;13.90;99.90
52555;DHT22;38455;52.710;6.502;2022-10-28T04:07:39;13.90;99.90
52555;DHT22;38455;52.710;6.502;2022-10-28T04:10:05;13.90;99.90
52555;DHT22;38455;52.710;6.502;2022-10-28T04:12:30;13.90;99.90
52555;DHT22;38455;52.710;6.502;2022-10-28T04:14:56;14.00;99.90
52555;DHT22;38455;52.710;6.502;2022-10-28T04:17:21;13.90;99.90
52555;DHT22;38455;52.710;6.502;2022-10-28T04:19:47;13.90;99.90
52555;DHT22;38455;52.710;6.502;2022-10-28T04:22:13;13.90;99.90
52555;DHT22;38455;52.710;6.502;2022-10-28T04:24:38;13.80;99.90
52555;DHT22;38455;52.710;6.502;2022-10-28T04:27:04;13.70;99.90
52555;DHT22;38455;52.710;6.502;2022-10-28T04:29:31;13.70;99.90
52555;DHT22;38455;52.710;6.502;2022-10-28T04:31:56;13.70;99.90
52555;DHT22;38455;52.710;6.502;2022-10-28T04:34:22;13.60;99.90
52555;DHT22;38455;52.710;6.502;2022-10-28T04:36:48;13.50;99.90
52555;DHT22;38455;52.710;6.502;2022-10-28T04:39:13;13.50;99.90
52555;DHT22;38455;52.710;6.502;2022-10-28T04:41:39;13.50;99.90
52555;DHT22;38455;52.710;6.502;2022-10-28T04:44:04;13.50;99.90
52555;DHT22;38455;52.710;6.502;2022-10-28T04:46:30;13.50;99.90
52555;DHT22;38455;52.710;6.502;2022-10-28T04:48:56;13.40;99.90
52555;DHT22;38455;52.710;6.502;2022-10-28T04:51:21;13.40;99.90
52555;DHT22;38455;52.710;6.502;2022-10-28T04:53:47;13.40;99.90
52555;DHT22;38455;52.710;6.502;2022-10-28T04:56:12;13.30;99.90
52555;DHT22;38455;52.710;6.502;2022-10-28T04:58:38;13.30;99.90
52555;DHT22;38455;52.710;6.502;2022-10-28T05:01:08;13.30;99.90
52555;DHT22;38455;52.710;6.502;2022-10-28T05:03:34;13.30;99.90
52555;DHT22;38455;52.710;6.502;2022-10-28T05:05:59;13.30;99.90
52555;DHT22;38455;52.710;6.502;2022-10-28T05:08:25;13.30;99.90
52555;DHT22;38455;52.710;6.502;2022-10-28T05:10:51;13.30;99.90
52555;DHT22;38455;52.710;6.502;2022-10-28T05:13:17;13.30;99.90
52555;DHT22;38455;52.710;6.502;2022-10-28T05:15:43;13.30;99.90
52555;DHT22;38455;52.710;6.502;2022-10-28T05:18:08;13.30;99.90
52555;DHT22;38455;52.710;6.502;2022-10-28T05:20:34;13.40;99.90
52555;DHT22;38455;52.710;6.502;2022-10-28T05:23:00;13.30;99.90
52555;DHT22;38455;52.710;6.502;2022-10-28T05:25:25;13.30;99.90
52555;DHT22;38455;52.710;6.502;2022-10-28T05:27:51;13.30;99.90
52555;DHT22;38455;52.710;6.502;2022-10-28T05:30:18;13.20;99.90
52555;DHT22;38455;52.710;6.502;2022-10-28T05:32:44;13.30;99.90
52555;DHT22;38455;52.710;6.502;2022-10-28T05:35:10;13.20;99.90
52555;DHT22;38455;52.710;6.502;2022-10-28T05:37:36;13.20;99.90
52555;DHT22;38455;52.710;6.502;2022-10-28T05:40:02;13.10;99.90
52555;DHT22;38455;52.710;6.502;2022-10-28T05:42:28;13.10;99.90
52555;DHT22;38455;52.710;6.502;2022-10-28T05:44:54;13.10;99.90
52555;DHT22;38455;52.710;6.502;2022-10-28T05:47:19;13.10;99.90
52555;DHT22;38455;52.710;6.502;2022-10-28T05:49:45;13.00;99.90
52555;DHT22;38455;52.710;6.502;2022-10-28T05:52:10;13.00;99.90
52555;DHT22;38455;52.710;6.502;2022-10-28T05:54:36;13.00;99.90
52555;DHT22;38455;52.710;6.502;2022-10-28T05:57:02;12.90;99.90
52555;DHT22;38455;52.710;6.502;2022-10-28T05:59:27;12.90;99.90
52555;DHT22;38455;52.710;6.502;2022-10-28T06:01:53;12.90;99.90
52555;DHT22;38455;52.710;6.502;2022-10-28T06:04:18;12.90;99.90
52555;DHT22;38455;52.710;6.502;2022-10-28T06:06:44;12.80;99.90
52555;DHT22;38455;52.710;6.502;2022-10-28T06:09:10;12.90;99.90
52555;DHT22;38455;52.710;6.502;2022-10-28T06:11:35;12.90;99.90
52555;DHT22;38455;52.710;6.502;2022-10-28T06:14:01;13.00;99.90
52555;DHT22;38455;52.710;6.502;2022-10-28T06:16:27;12.90;99.90
52555;DHT22;38455;52.710;6.502;2022-10-28T06:18:53;12.90;99.90
52555;DHT22;38455;52.710;6.502;2022-10-28T06:21:18;12.90;99.90
52555;DHT22;38455;52.710;6.502;2022-10-28T06:23:45;12.90;99.90
52555;DHT22;38455;52.710;6.502;2022-10-28T06:26:11;12.90;99.90
52555;DHT22;38455;52.710;6.502;2022-10-28T06:28:37;12.90;99.90
52555;DHT22;38455;52.710;6.502;2022-10-28T06:31:07;13.00;99.90
52555;DHT22;38455;52.710;6.502;2022-10-28T06:33:34;13.00;99.90
52555;DHT22;38455;52.710;6.502;2022-10-28T06:36:00;13.00;99.90
52555;DHT22;38455;52.710;6.502;2022-10-28T06:38:27;13.10;99.90
52555;DHT22;38455;52.710;6.502;2022-10-28T06:40:53;13.10;99.90
52555;DHT22;38455;52.710;6.502;2022-10-28T06:43:19;13.20;99.90
52555;DHT22;38455;52.710;6.502;2022-10-28T06:45:44;13.20;99.90
52555;DHT22;38455;52.710;6.502;2022-10-28T06:48:12;13.20;99.90
52555;DHT22;38455;52.710;6.502;2022-10-28T06:50:38;13.30;99.90
52555;DHT22;38455;52.710;6.502;2022-10-28T06:53:04;13.40;99.90
52555;DHT22;38455;52.710;6.502;2022-10-28T06:55:30;13.40;99.90
52555;DHT22;38455;52.710;6.502;2022-10-28T06:58:00;13.40;99.90
52555;DHT22;38455;52.710;6.502;2022-10-28T07:00:26;13.50;99.90
52555;DHT22;38455;52.710;6.502;2022-10-28T07:02:52;13.60;99.90
52555;DHT22;38455;52.710;6.502;2022-10-28T07:05:19;13.60;99.90
52555;DHT22;38455;52.710;6.502;2022-10-28T07:07:44;13.70;99.90
52555;DHT22;38455;52.710;6.502;2022-10-28T07:10:10;13.70;99.90
52555;DHT22;38455;52.710;6.502;2022-10-28T07:12:35;13.70;99.90
52555;DHT22;38455;52.710;6.502;2022-10-28T07:15:02;13.70;99.90
52555;DHT22;38455;52.710;6.502;2022-10-28T07:17:27;13.80;99.90
52555;DHT22;38455;52.710;6.502;2022-10-28T07:19:53;13.80;99.90
52555;DHT22;38455;52.710;6.502;2022-10-28T07:22:19;13.90;99.90
52555;DHT22;38455;52.710;6.502;2022-10-28T07:24:44;14.10;99.90
52555;DHT22;38455;52.710;6.502;2022-10-28T07:27:10;14.20;99.90
52555;DHT22;38455;52.710;6.502;2022-10-28T07:29:35;14.40;99.90
52555;DHT22;38455;52.710;6.502;2022-10-28T07:32:01;14.70;99.90
52555;DHT22;38455;52.710;6.502;2022-10-28T07:34:26;15.10;99.90
52555;DHT22;38455;52.710;6.502;2022-10-28T07:36:53;15.40;99.90
52555;DHT22;38455;52.710;6.502;2022-10-28T07:39:19;15.90;99.90
52555;DHT22;38455;52.710;6.502;2022-10-28T07:41:45;16.40;99.90
52555;DHT22;38455;52.710;6.502;2022-10-28T07:44:11;16.90;99.90
52555;DHT22;38455;52.710;6.502;2022-10-28T07:46:37;17.30;99.90
52555;DHT22;38455;52.710;6.502;2022-10-28T07:49:03;17.80;99.90
52555;DHT22;38455;52.710;6.502;2022-10-28T07:51:28;18.40;99.90
52555;DHT22;38455;52.710;6.502;2022-10-28T07:53:55;18.90;99.90
52555;DHT22;38455;52.710;6.502;2022-10-28T07:56:21;19.20;99.90
52555;DHT22;38455;52.710;6.502;2022-10-28T07:58:47;19.30;99.90
52555;DHT22;38455;52.710;6.502;2022-10-28T08:01:15;19.40;99.90
52555;DHT22;38455;52.710;6.502;2022-10-28T08:03:41;19.60;99.90
52555;DHT22;38455;52.710;6.502;2022-10-28T08:06:12;19.70;99.90
52555;DHT22;38455;52.710;6.502;2022-10-28T08:08:40;19.90;99.90
52555;DHT22;38455;52.710;6.502;2022-10-28T08:11:24;19.90;99.90
52555;DHT22;38455;52.710;6.502;2022-10-28T08:13:50;19.80;99.90
52555;DHT22;38455;52.710;6.502;2022-10-28T08:16:17;19.90;99.90
52555;DHT22;38455;52.710;6.502;2022-10-28T08:18:42;20.00;99.90
52555;DHT22;38455;52.710;6.502;2022-10-28T08:21:10;20.30;99.90
52555;DHT22;38455;52.710;6.502;2022-10-28T08:23:36;20.70;99.90
52555;DHT22;38455;52.710;6.502;2022-10-28T08:26:03;20.90;99.90
52555;DHT22;38455;52.710;6.502;2022-10-28T08:28:29;21.20;99.90
52555;DHT22;38455;52.710;6.502;2022-10-28T08:31:02;21.40;99.90
52555;DHT22;38455;52.710;6.502;2022-10-28T08:33:31;21.60;99.90
52555;DHT22;38455;52.710;6.502;2022-10-28T08:35:57;21.70;99.90
52555;DHT22;38455;52.710;6.502;2022-10-28T08:38:23;21.70;99.90
52555;DHT22;38455;52.710;6.502;2022-10-28T08:41:29;22.10;99.90
52555;DHT22;38455;52.710;6.502;2022-10-28T08:49:39;22.40;99.90
52555;DHT22;38455;52.710;6.502;2022-10-28T08:55:27;23.60;99.90
52555;DHT22;38455;52.710;6.502;2022-10-28T08:57:58;24.30;99.90
52555;DHT22;38455;52.710;6.502;2022-10-28T09:00:29;24.80;99.90
52555;DHT22;38455;52.710;6.502;2022-10-28T09:05:43;24.80;99.90
52555;DHT22;38455;52.710;6.502;2022-10-28T09:08:22;24.40;99.90
52555;DHT22;38455;52.710;6.502;2022-10-28T09:11:01;23.70;99.90
52555;DHT22;38455;52.710;6.502;2022-10-28T09:16:32;23.00;99.90
52555;DHT22;38455;52.710;6.502;2022-10-28T09:30:26;21.20;99.90
52555;DHT22;38455;52.710;6.502;2022-10-28T09:35:29;21.00;99.90
52555;DHT22;38455;52.710;6.502;2022-10-28T09:40:44;21.00;99.90
52555;DHT22;38455;52.710;6.502;2022-10-28T09:43:20;20.90;99.90
52555;DHT22;38455;52.710;6.502;2022-10-28T09:45:48;20.80;99.90
52555;DHT22;38455;52.710;6.502;2022-10-28T09:48:24;20.60;99.90
52555;DHT22;38455;52.710;6.502;2022-10-28T09:50:51;20.50;99.90
52555;DHT22;38455;52.710;6.502;2022-10-28T09:56:06;20.20;99.90
52555;DHT22;38455;52.710;6.502;2022-10-28T09:58:32;20.10;99.90
52555;DHT22;38455;52.710;6.502;2022-10-28T10:00:58;20.10;99.90
52555;DHT22;38455;52.710;6.502;2022-10-28T10:03:24;20.00;99.90
52555;DHT22;38455;52.710;6.502;2022-10-28T10:05:53;20.00;99.90
52555;DHT22;38455;52.710;6.502;2022-10-28T10:08:20;20.00;99.90
52555;DHT22;38455;52.710;6.502;2022-10-28T10:13:26;20.30;99.90
52555;DHT22;38455;52.710;6.502;2022-10-28T10:15:59;20.70;99.90
52555;DHT22;38455;52.710;6.502;2022-10-28T10:18:31;21.30;99.90
52555;DHT22;38455;52.710;6.502;2022-10-28T10:20:58;21.90;99.90
52555;DHT22;38455;52.710;6.502;2022-10-28T10:23:33;22.20;99.90
52555;DHT22;38455;52.710;6.502;2022-10-28T10:26:04;22.30;99.90
52555;DHT22;38455;52.710;6.502;2022-10-28T10:28:32;22.30;99.90
52555;DHT22;38455;52.710;6.502;2022-10-28T10:31:02;22.10;99.90
52555;DHT22;38455;52.710;6.502;2022-10-28T10:33:52;22.00;99.90
52555;DHT22;38455;52.710;6.502;2022-10-28T10:36:20;21.80;99.90
52555;DHT22;38455;52.710;6.502;2022-10-28T10:38:58;21.70;99.90
52555;DHT22;38455;52.710;6.502;2022-10-28T10:41:42;21.70;99.90
52555;DHT22;38455;52.710;6.502;2022-10-28T10:49:35;21.50;99.90
52555;DHT22;38455;52.710;6.502;2022-10-28T10:52:06;21.60;99.90
52555;DHT22;38455;52.710;6.502;2022-10-28T10:54:39;21.60;99.90
52555;DHT22;38455;52.710;6.502;2022-10-28T10:59:34;21.50;99.90
52555;DHT22;38455;52.710;6.502;2022-10-28T11:02:03;21.50;99.90
52555;DHT22;38455;52.710;6.502;2022-10-28T11:04:49;21.90;99.90
52555;DHT22;38455;52.710;6.502;2022-10-28T11:07:16;22.60;99.90
52555;DHT22;38455;52.710;6.502;2022-10-28T11:09:42;23.60;99.90
52555;DHT22;38455;52.710;6.502;2022-10-28T11:12:29;24.60;99.90
52555;DHT22;38455;52.710;6.502;2022-10-28T11:17:39;26.00;99.90
52555;DHT22;38455;52.710;6.502;2022-10-28T11:20:26;26.10;99.90
52555;DHT22;38455;52.710;6.502;2022-10-28T11:26:13;25.70;99.90
52555;DHT22;38455;52.710;6.502;2022-10-28T11:45:52;24.60;99.90
52555;DHT22;38455;52.710;6.502;2022-10-28T11:48:44;24.60;99.90
52555;DHT22;38455;52.710;6.502;2022-10-28T11:51:41;24.50;99.90
52555;DHT22;38455;52.710;6.502;2022-10-28T11:59:38;24.70;99.90
52555;DHT22;38455;52.710;6.502;2022-10-28T12:11:18;23.30;99.90
52555;DHT22;38455;52.710;6.502;2022-10-28T12:16:55;22.90;99.90
52555;DHT22;38455;52.710;6.502;2022-10-28T12:19:28;22.80;99.90
52555;DHT22;38455;52.710;6.502;2022-10-28T12:22:13;22.70;99.90
52555;DHT22;38455;52.710;6.502;2022-10-28T12:24:44;22.70;99.90
52555;DHT22;38455;52.710;6.502;2022-10-28T12:27:23;22.60;99.90
52555;DHT22;38455;52.710;6.502;2022-10-28T12:29:57;22.60;99.90
52555;DHT22;38455;52.710;6.502;2022-10-28T12:32:30;22.50;99.90
52555;DHT22;38455;52.710;6.502;2022-10-28T12:38:27;22.50;99.90
52555;DHT22;38455;52.710;6.502;2022-10-28T12:40:42;22.40;99.90
52555;DHT22;38455;52.710;6.502;2022-10-28T12:43:23;22.30;99.90
52555;DHT22;38455;52.710;6.502;2022-10-28T12:45:52;22.20;99.90
52555;DHT22;38455;52.710;6.502;2022-10-28T12:48:42;22.20;99.90
52555;DHT22;38455;52.710;6.502;2022-10-28T12:51:21;22.10;99.90
52555;DHT22;38455;52.710;6.502;2022-10-28T12:53:56;22.00;99.90
52555;DHT22;38455;52.710;6.502;2022-10-28T12:56:36;21.90;99.90
52555;DHT22;38455;52.710;6.502;2022-10-28T12:59:31;21.90;99.90
52555;DHT22;38455;52.710;6.502;2022-10-28T13:02:00;21.90;99.90
52555;DHT22;38455;52.710;6.502;2022-10-28T13:04:27;21.90;99.90
52555;DHT22;38455;52.710;6.502;2022-10-28T13:07:16;21.80;99.90
52555;DHT22;38455;52.710;6.502;2022-10-28T13:10:06;21.90;99.90
52555;DHT22;38455;52.710;6.502;2022-10-28T13:12:59;21.90;99.90
52555;DHT22;38455;52.710;6.502;2022-10-28T13:21:13;21.90;99.90
52555;DHT22;38455;52.710;6.502;2022-10-28T13:26:42;22.00;99.90
52555;DHT22;38455;52.710;6.502;2022-10-28T13:29:26;22.00;99.90
52555;DHT22;38455;52.710;6.502;2022-10-28T13:31:53;22.00;99.90
52555;DHT22;38455;52.710;6.502;2022-10-28T13:34:28;22.00;99.90
52555;DHT22;38455;52.710;6.502;2022-10-28T13:36:57;22.00;99.90
52555;DHT22;38455;52.710;6.502;2022-10-28T13:44:57;21.90;99.90
52555;DHT22;38455;52.710;6.502;2022-10-28T13:47:33;21.80;99.90
52555;DHT22;38455;52.710;6.502;2022-10-28T13:52:33;21.70;99.90
52555;DHT22;38455;52.710;6.502;2022-10-28T13:55:23;21.60;99.90
52555;DHT22;38455;52.710;6.502;2022-10-28T13:58:21;21.60;99.90
52555;DHT22;38455;52.710;6.502;2022-10-28T14:00:48;21.50;99.90
52555;DHT22;38455;52.710;6.502;2022-10-28T14:03:19;21.50;99.90
52555;DHT22;38455;52.710;6.502;2022-10-28T14:08:33;21.40;99.90
52555;DHT22;38455;52.710;6.502;2022-10-28T14:11:10;21.30;99.90
52555;DHT22;38455;52.710;6.502;2022-10-28T14:13:40;21.30;99.90
52555;DHT22;38455;52.710;6.502;2022-10-28T14:16:31;21.20;99.90
52555;DHT22;38455;52.710;6.502;2022-10-28T14:18:59;21.20;99.90
52555;DHT22;38455;52.710;6.502;2022-10-28T14:21:55;21.10;99.90
52555;DHT22;38455;52.710;6.502;2022-10-28T14:24:40;21.10;99.90
52555;DHT22;38455;52.710;6.502;2022-10-28T14:29:52;20.90;99.90
52555;DHT22;38455;52.710;6.502;2022-10-28T14:38:18;20.80;99.90
52555;DHT22;38455;52.710;6.502;2022-10-28T14:40:49;20.80;99.90
52555;DHT22;38455;52.710;6.502;2022-10-28T14:45:51;20.70;99.90
52555;DHT22;38455;52.710;6.502;2022-10-28T14:50:46;20.60;99.90
52555;DHT22;38455;52.710;6.502;2022-10-28T14:53:32;20.50;99.90
52555;DHT22;38455;52.710;6.502;2022-10-28T14:56:08;20.50;99.90
52555;DHT22;38455;52.710;6.502;2022-10-28T14:58:42;20.40;99.90
52555;DHT22;38455;52.710;6.502;2022-10-28T15:03:45;20.40;99.90
52555;DHT22;38455;52.710;6.502;2022-10-28T15:08:56;20.30;99.90
52555;DHT22;38455;52.710;6.502;2022-10-28T15:11:27;20.30;99.90
52555;DHT22;38455;52.710;6.502;2022-10-28T15:13:53;20.30;99.90
52555;DHT22;38455;52.710;6.502;2022-10-28T15:16:23;20.20;99.90
52555;DHT22;38455;52.710;6.502;2022-10-28T15:18:51;20.20;99.90
52555;DHT22;38455;52.710;6.502;2022-10-28T15:21:20;20.10;99.90
52555;DHT22;38455;52.710;6.502;2022-10-28T15:24:01;20.10;99.90
52555;DHT22;38455;52.710;6.502;2022-10-28T15:26:29;20.10;99.90
52555;DHT22;38455;52.710;6.502;2022-10-28T15:28:54;20.00;99.90
52555;DHT22;38455;52.710;6.502;2022-10-28T15:31:20;19.90;99.90
52555;DHT22;38455;52.710;6.502;2022-10-28T15:33:46;19.90;99.90
52555;DHT22;38455;52.710;6.502;2022-10-28T15:36:15;19.80;99.90
52555;DHT22;38455;52.710;6.502;2022-10-28T15:38:49;19.80;99.90
52555;DHT22;38455;52.710;6.502;2022-10-28T15:43:59;19.70;99.90
52555;DHT22;38455;52.710;6.502;2022-10-28T15:46:26;19.60;99.90
52555;DHT22;38455;52.710;6.502;2022-10-28T15:48:54;19.60;99.90
52555;DHT22;38455;52.710;6.502;2022-10-28T15:51:20;19.50;99.90
52555;DHT22;38455;52.710;6.502;2022-10-28T15:53:47;19.50;99.90
52555;DHT22;38455;52.710;6.502;2022-10-28T15:58:41;19.40;99.90
52555;DHT22;38455;52.710;6.502;2022-10-28T16:03:56;19.30;99.90
52555;DHT22;38455;52.710;6.502;2022-10-28T16:06:28;19.20;99.90
52555;DHT22;38455;52.710;6.502;2022-10-28T16:09:00;19.20;99.90
52555;DHT22;38455;52.710;6.502;2022-10-28T16:11:27;19.20;99.90
52555;DHT22;38455;52.710;6.502;2022-10-28T16:13:53;19.10;99.90
52555;DHT22;38455;52.710;6.502;2022-10-28T16:16:27;19.10;99.90
52555;DHT22;38455;52.710;6.502;2022-10-28T16:19:08;19.10;99.90
52555;DHT22;38455;52.710;6.502;2022-10-28T16:21:35;19.00;99.90
52555;DHT22;38455;52.710;6.502;2022-10-28T16:24:02;19.00;99.90
52555;DHT22;38455;52.710;6.502;2022-10-28T16:26:29;19.00;99.90
52555;DHT22;38455;52.710;6.502;2022-10-28T16:28:55;19.00;99.90
52555;DHT22;38455;52.710;6.502;2022-10-28T16:31:24;19.00;99.90
52555;DHT22;38455;52.710;6.502;2022-10-28T16:33:51;18.90;99.90
52555;DHT22;38455;52.710;6.502;2022-10-28T16:36:17;18.90;99.90
52555;DHT22;38455;52.710;6.502;2022-10-28T16:38:42;18.90;99.90
52555;DHT22;38455;52.710;6.502;2022-10-28T16:41:16;18.90;99.90
52555;DHT22;38455;52.710;6.502;2022-10-28T16:43:43;18.90;99.90
52555;DHT22;38455;52.710;6.502;2022-10-28T16:46:11;18.80;99.90
52555;DHT22;38455;52.710;6.502;2022-10-28T16:48:37;18.90;99.90
52555;DHT22;38455;52.710;6.502;2022-10-28T16:51:05;18.80;99.90
52555;DHT22;38455;52.710;6.502;2022-10-28T16:53:34;18.80;99.90
52555;DHT22;38455;52.710;6.502;2022-10-28T16:56:00;18.80;99.90
52555;DHT22;38455;52.710;6.502;2022-10-28T16:58:27;18.80;99.90
52555;DHT22;38455;52.710;6.502;2022-10-28T17:00:54;18.80;99.90
52555;DHT22;38455;52.710;6.502;2022-10-28T17:03:20;18.80;99.90
52555;DHT22;38455;52.710;6.502;2022-10-28T17:05:45;18.70;99.90
52555;DHT22;38455;52.710;6.502;2022-10-28T17:08:11;18.70;99.90
52555;DHT22;38455;52.710;6.502;2022-10-28T17:10:38;18.60;99.90
52555;DHT22;38455;52.710;6.502;2022-10-28T17:13:11;18.60;99.90
52555;DHT22;38455;52.710;6.502;2022-10-28T17:15:37;18.50;99.90
52555;DHT22;38455;52.710;6.502;2022-10-28T17:18:03;18.50;99.90
52555;DHT22;38455;52.710;6.502;2022-10-28T17:20:28;18.50;99.90
52555;DHT22;38455;52.710;6.502;2022-10-28T17:22:54;18.40;99.90
52555;DHT22;38455;52.710;6.502;2022-10-28T17:25:22;18.40;99.90
52555;DHT22;38455;52.710;6.502;2022-10-28T17:27:48;18.40;99.90
52555;DHT22;38455;52.710;6.502;2022-10-28T17:30:17;18.30;99.90
52555;DHT22;38455;52.710;6.502;2022-10-28T17:32:43;18.30;99.90
52555;DHT22;38455;52.710;6.502;2022-10-28T17:35:10;18.20;99.90
52555;DHT22;38455;52.710;6.502;2022-10-28T17:37:35;18.20;99.90
52555;DHT22;38455;52.710;6.502;2022-10-28T17:40:01;18.20;99.90
52555;DHT22;38455;52.710;6.502;2022-10-28T17:42:27;18.10;99.90
52555;DHT22;38455;52.710;6.502;2022-10-28T17:44:53;18.10;99.90
52555;DHT22;38455;52.710;6.502;2022-10-28T17:47:20;18.10;99.90
52555;DHT22;38455;52.710;6.502;2022-10-28T17:49:45;18.10;99.90
52555;DHT22;38455;52.710;6.502;2022-10-28T17:52:12;18.10;99.90
52555;DHT22;38455;52.710;6.502;2022-10-28T17:54:37;18.00;99.90
52555;DHT22;38455;52.710;6.502;2022-10-28T17:57:03;18.10;99.90
52555;DHT22;38455;52.710;6.502;2022-10-28T17:59:29;18.10;99.90
52555;DHT22;38455;52.710;6.502;2022-10-28T18:01:54;18.00;99.90
52555;DHT22;38455;52.710;6.502;2022-10-28T18:04:20;18.10;99.90
52555;DHT22;38455;52.710;6.502;2022-10-28T18:06:51;18.00;99.90
52555;DHT22;38455;52.710;6.502;2022-10-28T18:09:18;18.00;99.90
52555;DHT22;38455;52.710;6.502;2022-10-28T18:11:43;18.00;99.90
52555;DHT22;38455;52.710;6.502;2022-10-28T18:14:09;18.00;99.90
52555;DHT22;38455;52.710;6.502;2022-10-28T18:16:35;17.90;99.90
52555;DHT22;38455;52.710;6.502;2022-10-28T18:19:05;17.90;99.90
52555;DHT22;38455;52.710;6.502;2022-10-28T18:21:31;17.90;99.90
52555;DHT22;38455;52.710;6.502;2022-10-28T18:23:57;17.80;99.90
52555;DHT22;38455;52.710;6.502;2022-10-28T18:26:29;17.80;99.90
52555;DHT22;38455;52.710;6.502;2022-10-28T18:28:55;17.80;99.90
52555;DHT22;38455;52.710;6.502;2022-10-28T18:31:21;17.80;99.90
52555;DHT22;38455;52.710;6.502;2022-10-28T18:33:48;17.80;99.90